Time;durP1;ratioP1;P1;durP2;ratioP2;P2;SDS_P1;SDS_P2;PMS_P1;PMS_P2;Temp;Humidity;BMP_temperature;BMP_pressure;BME280_temperature;BME280_humidity;BME280_pressure;Samples;Min_cycle;Max_cycle;Signal;HPM_P1;HPM_P2
2022/06/29 00:00:43;;;;;;;9.10;7.30;;;;;;;19.77;77.22;98201.37;105465;1284;24315;-89
2022/06/29 00:03:11;;;;;;;9.40;8.40;;;;;;;19.80;77.50;98199.20;106093;1284;22588;-89
2022/06/29 00:05:39;;;;;;;8.90;8.00;;;;;;;19.87;77.86;98195.23;105657;1285;22887;-89
2022/06/29 00:08:07;;;;;;;9.90;8.30;;;;;;;19.96;77.56;98187.55;105412;1284;22550;-88
2022/06/29 00:10:37;;;;;;;11.10;10.00;;;;;;;19.95;77.40;98183.95;105421;1284;24294;-88
2022/06/29 00:13:05;;;;;;;12.50;10.00;;;;;;;19.84;77.52;98182.97;105442;1284;22567;-87
2022/06/29 00:15:33;;;;;;;12.50;9.70;;;;;;;19.71;77.67;98179.22;105409;1284;24370;-90
2022/06/29 00:18:01;;;;;;;12.30;11.20;;;;;;;19.61;77.94;98178.30;105475;1284;24273;-88
2022/06/29 00:20:29;;;;;;;11.90;10.10;;;;;;;19.52;78.13;98172.14;105537;1285;23985;-90
2022/06/29 00:22:57;;;;;;;11.60;10.30;;;;;;;19.50;78.32;98172.62;105670;1284;22742;-85
2022/06/29 00:25:25;;;;;;;11.40;10.10;;;;;;;19.49;78.43;98174.86;105523;1284;22547;-88
2022/06/29 00:27:52;;;;;;;11.40;9.70;;;;;;;19.45;78.71;98171.56;105410;1284;22722;-90
2022/06/29 00:30:20;;;;;;;12.70;9.90;;;;;;;19.47;78.90;98161.23;105253;1284;25370;-90
2022/06/29 00:32:48;;;;;;;11.30;9.80;;;;;;;19.49;78.89;98149.01;105326;1285;22561;-89
2022/06/29 00:35:16;;;;;;;13.60;9.00;;;;;;;19.51;78.88;98151.73;105345;1284;22574;-88
2022/06/29 00:37:44;;;;;;;13.30;10.10;;;;;;;19.55;78.93;98160.63;105598;1285;24230;-86
2022/06/29 00:40:12;;;;;;;12.00;10.70;;;;;;;19.53;78.96;98166.30;106490;1284;25938;-88
2022/06/29 00:42:41;;;;;;;12.00;10.00;;;;;;;19.51;79.16;98168.20;105423;1284;22557;-88
2022/06/29 00:45:09;;;;;;;12.60;11.10;;;;;;;19.47;79.45;98160.75;105308;1284;22566;-88
2022/06/29 00:47:37;;;;;;;13.30;9.80;;;;;;;19.46;79.69;98169.63;105237;1284;22566;-88
2022/06/29 00:50:06;;;;;;;10.60;9.40;;;;;;;19.51;79.83;98167.80;105259;1284;22566;-87
2022/06/29 00:52:37;;;;;;;13.10;9.20;;;;;;;19.57;80.06;98158.59;105064;1285;22586;-87
2022/06/29 00:55:10;;;;;;;8.60;7.70;;;;;;;19.63;80.88;98149.36;105281;1283;23192;-87
2022/06/29 00:57:42;;;;;;;11.40;8.10;;;;;;;19.66;81.03;98142.77;105368;1284;24342;-87
2022/06/29 01:00:11;;;;;;;9.40;7.70;;;;;;;19.70;81.24;98135.13;105468;1284;22925;-88
2022/06/29 01:02:39;;;;;;;8.60;7.20;;;;;;;19.74;81.86;98129.61;105500;1284;24293;-88
2022/06/29 01:05:09;;;;;;;10.00;8.60;;;;;;;19.74;82.35;98124.36;105765;1284;22602;-89
2022/06/29 01:07:37;;;;;;;9.40;7.70;;;;;;;19.73;81.93;98122.23;105716;1284;24225;-90
2022/06/29 01:10:05;;;;;;;7.70;6.90;;;;;;;19.77;81.72;98117.25;105504;1284;22811;-88
2022/06/29 01:12:34;;;;;;;11.10;7.60;;;;;;;19.86;81.50;98112.70;105304;1284;24102;-88
2022/06/29 01:15:02;;;;;;;7.90;6.40;;;;;;;19.96;81.77;98104.11;105446;1284;22548;-89
2022/06/29 01:17:30;;;;;;;10.40;7.30;;;;;;;20.17;82.01;98098.64;105230;1284;22869;-88
2022/06/29 01:19:58;;;;;;;8.30;6.60;;;;;;;20.31;81.49;98094.27;105359;1284;22600;-87
2022/06/29 01:22:27;;;;;;;7.60;6.80;;;;;;;20.45;82.12;98096.98;105431;1284;22800;-86
2022/06/29 01:24:56;;;;;;;8.10;6.60;;;;;;;20.62;81.32;98103.54;105466;1284;23961;-86
2022/06/29 01:27:24;;;;;;;9.50;7.10;;;;;;;20.73;81.58;98108.52;105423;1284;22580;-86
2022/06/29 01:29:53;;;;;;;8.50;7.00;;;;;;;20.84;80.85;98117.98;105409;1284;25351;-87
2022/06/29 01:32:21;;;;;;;9.60;8.60;;;;;;;20.95;80.42;98124.29;105279;1284;22728;-86
2022/06/29 01:34:50;;;;;;;9.40;8.50;;;;;;;20.84;79.97;98121.02;105384;1284;22639;-88
2022/06/29 01:37:18;;;;;;;12.10;10.80;;;;;;;20.79;80.26;98121.64;105432;1284;22602;-86
2022/06/29 01:39:46;;;;;;;11.60;9.80;;;;;;;20.69;79.84;98127.46;105451;1284;22681;-86
2022/06/29 01:42:14;;;;;;;9.40;8.20;;;;;;;20.56;79.97;98130.86;105383;1284;24276;-86
2022/06/29 01:44:43;;;;;;;12.30;9.90;;;;;;;20.68;81.79;98123.20;105398;1284;22590;-88
2022/06/29 01:47:11;;;;;;;11.70;9.00;;;;;;;20.89;80.41;98111.73;105430;1285;22658;-87
2022/06/29 01:49:39;;;;;;;13.10;10.10;;;;;;;21.04;80.31;98086.81;105445;1284;22573;-87
2022/06/29 01:52:07;;;;;;;11.20;9.10;;;;;;;21.03;79.32;98059.41;105372;1284;22568;-87
2022/06/29 01:54:35;;;;;;;11.00;9.20;;;;;;;20.84;79.18;98060.86;104995;1286;271309;-86
2022/06/29 01:57:03;;;;;;;12.40;9.90;;;;;;;20.74;79.67;98073.50;105227;1284;22556;-85
2022/06/29 01:59:31;;;;;;;8.20;7.40;;;;;;;20.78;80.76;98083.98;105268;1284;22588;-85
2022/06/29 02:01:59;;;;;;;9.20;7.60;;;;;;;21.01;81.16;98084.73;105386;1284;22555;-87
2022/06/29 02:04:27;;;;;;;10.00;8.10;;;;;;;21.18;79.68;98080.41;105311;1284;22566;-86
2022/06/29 02:06:55;;;;;;;11.30;10.20;;;;;;;21.10;78.94;98083.80;105293;1284;25369;-86
2022/06/29 02:09:23;;;;;;;9.30;8.10;;;;;;;21.12;79.96;98077.89;105259;1285;23390;-85
2022/06/29 02:11:51;;;;;;;9.40;8.00;;;;;;;21.33;80.11;98084.84;105235;1284;26764;-86
2022/06/29 02:14:19;;;;;;;12.00;10.70;;;;;;;21.55;79.03;98083.96;105278;1284;24144;-87
2022/06/29 02:16:47;;;;;;;10.10;9.00;;;;;;;21.58;78.45;98085.03;105274;1284;24433;-87
2022/06/29 02:19:15;;;;;;;11.30;9.70;;;;;;;21.50;78.20;98088.66;105368;1284;25373;-88
2022/06/29 02:21:43;;;;;;;10.20;9.00;;;;;;;21.51;78.51;98090.49;105408;1284;22570;-86
2022/06/29 02:24:11;;;;;;;12.40;9.70;;;;;;;21.27;77.56;98091.64;105402;1285;25205;-87
2022/06/29 02:26:39;;;;;;;9.30;7.80;;;;;;;21.05;78.66;98092.23;105440;1284;22522;-85
2022/06/29 02:29:07;;;;;;;16.10;14.50;;;;;;;21.14;78.95;98088.17;105395;1284;24751;-86
2022/06/29 02:37:07;;;;;;;10.50;9.50;;;;;;;20.77;79.06;98095.77;105332;1284;25361;-84
2022/06/29 02:39:35;;;;;;;12.50;9.60;;;;;;;20.95;80.22;98094.02;105432;1284;22587;-86
2022/06/29 02:42:05;;;;;;;11.90;9.90;;;;;;;21.29;79.49;98088.06;105210;1285;22563;-79
2022/06/29 02:44:33;;;;;;;11.00;10.00;;;;;;;21.46;78.41;98093.84;105409;1285;22713;-79
2022/06/29 02:47:01;;;;;;;12.00;10.80;;;;;;;21.43;77.35;98105.08;105857;1284;22589;-85
2022/06/29 02:49:29;;;;;;;12.10;10.80;;;;;;;21.22;76.94;98104.52;105476;1284;24195;-81
2022/06/29 02:51:56;;;;;;;11.10;9.80;;;;;;;21.01;77.00;98104.30;105473;1284;22702;-80
2022/06/29 02:54:25;;;;;;;13.10;10.10;;;;;;;20.85;77.32;98090.45;105418;1284;22566;-81
2022/06/29 02:56:56;;;;;;;12.50;10.60;;;;;;;20.78;77.26;98088.44;105234;1284;22640;-81
2022/06/29 02:59:24;;;;;;;10.90;9.10;;;;;;;20.65;77.13;98097.48;105288;1284;22621;-81
2022/06/29 03:01:51;;;;;;;11.00;10.00;;;;;;;20.49;77.39;98104.57;105267;1284;22778;-81
2022/06/29 03:04:19;;;;;;;7.30;6.50;;;;;;;20.38;78.21;98097.37;105283;1284;22634;-82
2022/06/29 03:06:48;;;;;;;6.40;5.70;;;;;;;20.61;80.17;98084.20;105234;1284;22547;-82
2022/06/29 03:09:15;;;;;;;12.60;9.30;;;;;;;20.93;79.12;98078.33;105162;1284;22717;-82
2022/06/29 03:11:43;;;;;;;9.30;7.30;;;;;;;21.10;79.01;98069.39;105212;1284;22556;-82
2022/06/29 03:14:11;;;;;;;11.80;10.00;;;;;;;21.41;78.98;98062.98;105375;1285;25197;-80
2022/06/29 03:16:39;;;;;;;15.20;10.40;;;;;;;21.41;76.90;98058.60;105394;1284;24442;-81
2022/06/29 03:19:07;;;;;;;12.60;10.80;;;;;;;21.25;77.09;98055.48;105390;1284;24269;-81
2022/06/29 03:21:35;;;;;;;11.20;10.10;;;;;;;21.20;77.38;98058.53;105409;1284;24272;-80
2022/06/29 03:24:06;;;;;;;12.90;10.10;;;;;;;21.06;76.89;98058.36;105371;1284;22538;-81
2022/06/29 03:26:34;;;;;;;11.00;9.40;;;;;;;20.89;77.18;98059.46;105399;1284;24287;-81
2022/06/29 03:29:02;;;;;;;10.50;8.80;;;;;;;20.79;77.06;98052.95;105368;1284;24112;-80
2022/06/29 03:31:29;;;;;;;10.70;9.30;;;;;;;20.68;77.32;98046.39;105390;1284;24353;-81
2022/06/29 03:33:58;;;;;;;13.70;11.00;;;;;;;20.46;77.56;98043.52;105382;1284;25345;-81
2022/06/29 03:36:26;;;;;;;9.50;8.60;;;;;;;20.29;77.93;98041.27;105302;1285;24541;-81
2022/06/29 03:38:54;;;;;;;11.90;8.90;;;;;;;20.17;78.48;98035.65;105365;1284;25255;-80
2022/06/29 03:41:22;;;;;;;12.60;9.90;;;;;;;20.11;78.91;98034.25;105376;1284;24558;-80
2022/06/29 03:43:49;;;;;;;11.10;10.10;;;;;;;20.14;79.19;98031.42;105363;1285;25246;-81
2022/06/29 03:46:17;;;;;;;12.60;11.10;;;;;;;20.18;79.19;98021.83;105320;1285;25314;-81
2022/06/29 03:48:45;;;;;;;12.00;10.40;;;;;;;20.24;79.41;98024.14;105372;1284;22897;-81
2022/06/29 03:51:13;;;;;;;13.20;12.00;;;;;;;20.24;79.56;98023.98;105317;1285;22559;-80
2022/06/29 03:53:41;;;;;;;13.30;12.20;;;;;;;20.22;79.51;98025.20;105354;1284;22577;-81
2022/06/29 03:56:09;;;;;;;16.70;12.40;;;;;;;20.24;79.78;98026.72;105371;1284;24443;-80
2022/06/29 03:58:38;;;;;;;14.10;12.90;;;;;;;20.20;79.93;98023.05;105185;1286;22564;-80
2022/06/29 04:01:10;;;;;;;11.30;10.30;;;;;;;20.32;80.70;98020.69;105247;1288;22564;-80
2022/06/29 04:03:38;;;;;;;15.90;13.40;;;;;;;20.57;80.24;98020.52;105377;1284;22576;-81
2022/06/29 04:06:06;;;;;;;13.50;12.10;;;;;;;20.63;79.52;98025.97;105343;1284;22581;-81
2022/06/29 04:08:35;;;;;;;11.60;10.60;;;;;;;20.68;79.92;98026.21;105214;1284;25333;-81
2022/06/29 04:11:48;;;;;;;13.70;12.50;;;;;;;20.87;80.25;98025.16;105211;1284;24273;-81
2022/06/29 04:13:53;;;;;;;10.30;9.00;;;;;;;21.08;80.15;98019.73;105150;1284;22568;-81
2022/06/29 04:16:21;;;;;;;13.30;12.00;;;;;;;21.39;80.24;98020.58;105284;1284;22767;-80
2022/06/29 04:18:49;;;;;;;12.20;11.00;;;;;;;21.54;79.00;98018.79;105351;1284;22532;-81
2022/06/29 04:21:17;;;;;;;13.30;12.10;;;;;;;21.62;79.09;98016.70;105153;1287;22564;-81
2022/06/29 04:23:45;;;;;;;13.70;12.40;;;;;;;21.68;78.99;98019.79;105367;1284;24266;-81
2022/06/29 04:26:13;;;;;;;13.60;12.30;;;;;;;21.70;78.57;98022.80;105330;1284;25241;-81
2022/06/29 04:28:41;;;;;;;12.90;11.80;;;;;;;21.70;78.96;98023.10;105337;1284;22570;-82
2022/06/29 04:31:09;;;;;;;10.70;9.80;;;;;;;21.83;78.96;98023.76;105404;1284;22556;-81
2022/06/29 04:33:37;;;;;;;10.80;9.90;;;;;;;21.95;78.84;98023.07;105363;1285;22881;-82
2022/06/29 04:36:05;;;;;;;13.10;11.80;;;;;;;22.11;78.40;98023.60;105254;1285;22578;-81
2022/06/29 04:38:33;;;;;;;13.50;12.30;;;;;;;22.21;77.98;98024.92;105203;1285;22671;-81
2022/06/29 04:41:02;;;;;;;13.30;12.00;;;;;;;22.25;77.80;98020.75;105249;1285;22562;-81
2022/06/29 04:43:30;;;;;;;13.70;12.40;;;;;;;22.18;77.09;98017.52;105309;1285;26593;-82
2022/06/29 04:48:56;;;;;;;10.60;9.50;;;;;;;22.29;77.21;98014.99;105308;1285;25461;-82
2022/06/29 04:51:25;;;;;;;13.90;11.70;;;;;;;22.44;76.80;98016.04;105316;1285;25475;-82
2022/06/29 04:53:55;;;;;;;15.00;13.70;;;;;;;22.52;76.34;98014.72;105347;1285;22660;-81
2022/06/29 04:56:27;;;;;;;11.70;10.60;;;;;;;22.54;76.00;98012.78;105334;1285;22798;-80
2022/06/29 04:58:57;;;;;;;14.30;13.00;;;;;;;22.51;76.31;98016.20;105348;1285;22576;-81
2022/06/29 05:01:27;;;;;;;13.90;12.60;;;;;;;22.51;76.04;98016.98;105322;1285;22570;-81
2022/06/29 05:03:56;;;;;;;14.10;12.80;;;;;;;22.56;76.04;98016.48;105373;1285;22594;-81
2022/06/29 05:06:24;;;;;;;14.20;12.90;;;;;;;22.54;75.26;98023.21;105291;1285;25302;-81
2022/06/29 05:08:53;;;;;;;13.20;12.00;;;;;;;22.47;75.87;98024.55;105325;1285;22588;-81
2022/06/29 05:11:23;;;;;;;14.00;12.90;;;;;;;22.41;75.63;98031.23;105360;1285;23968;-81
2022/06/29 05:13:51;;;;;;;13.20;12.00;;;;;;;22.41;75.95;98028.40;105329;1285;22560;-81
2022/06/29 05:16:20;;;;;;;11.40;10.40;;;;;;;22.50;76.02;98031.11;105276;1285;25218;-80
2022/06/29 05:18:49;;;;;;;11.70;10.60;;;;;;;22.66;75.86;98035.04;105397;1285;22707;-80
2022/06/29 05:21:20;;;;;;;13.10;11.80;;;;;;;22.75;75.27;98039.45;104923;1285;22674;-80
2022/06/29 05:23:48;;;;;;;8.70;7.70;;;;;;;22.83;75.30;98036.09;104948;1286;24131;-80
2022/06/29 05:26:16;;;;;;;13.40;12.30;;;;;;;22.96;75.11;98037.35;104936;1287;24382;-79
2022/06/29 05:28:44;;;;;;;13.20;12.00;;;;;;;22.91;74.29;98038.14;105619;1285;22696;-80
2022/06/29 05:31:12;;;;;;;12.70;11.60;;;;;;;22.84;74.16;98037.83;106439;1285;24249;-81
2022/06/29 05:33:40;;;;;;;14.10;12.60;;;;;;;22.91;74.31;98040.41;105385;1284;22583;-81
2022/06/29 05:36:10;;;;;;;10.00;9.10;;;;;;;23.00;74.39;98044.46;105373;1284;22589;-82
2022/06/29 05:38:38;;;;;;;11.30;10.20;;;;;;;23.12;74.29;98045.98;105309;1284;22641;-81
2022/06/29 05:41:06;;;;;;;11.80;10.70;;;;;;;23.21;74.12;98041.27;105303;1284;22633;-81
2022/06/29 05:43:34;;;;;;;13.50;12.20;;;;;;;23.20;73.95;98043.86;105272;1284;23974;-80
2022/06/29 05:46:02;;;;;;;13.10;11.80;;;;;;;23.16;73.82;98045.23;105245;1284;24874;-80
2022/06/29 05:48:30;;;;;;;13.00;11.70;;;;;;;23.16;73.67;98044.92;105016;1286;22590;-81
2022/06/29 05:50:58;;;;;;;13.80;12.60;;;;;;;23.14;73.56;98042.71;105266;1284;25347;-81
2022/06/29 05:53:27;;;;;;;12.20;11.00;;;;;;;23.04;73.27;98044.89;105256;1284;23381;-81
2022/06/29 05:55:55;;;;;;;13.50;11.80;;;;;;;23.03;73.43;98041.98;105321;1284;22630;-82
2022/06/29 05:58:23;;;;;;;10.60;8.90;;;;;;;23.07;73.70;98033.22;105473;1284;22562;-81
2022/06/29 06:00:51;;;;;;;11.20;10.20;;;;;;;23.19;73.64;98025.46;105423;1284;22570;-80
2022/06/29 06:03:19;;;;;;;13.00;11.60;;;;;;;23.32;73.54;98017.73;105284;1287;22803;-81
2022/06/29 06:05:47;;;;;;;12.40;11.30;;;;;;;23.36;73.10;98022.08;105265;1284;22717;-80
2022/06/29 06:08:15;;;;;;;14.10;12.70;;;;;;;23.31;72.81;98023.15;105305;1284;22573;-81
2022/06/29 06:10:43;;;;;;;11.20;10.20;;;;;;;23.18;72.39;98021.54;105358;1284;22659;-81
2022/06/29 06:13:11;;;;;;;13.50;11.90;;;;;;;23.15;72.86;98025.98;105257;1284;22660;-81
2022/06/29 06:15:39;;;;;;;13.40;12.10;;;;;;;23.18;72.69;98030.27;105406;1284;24177;-81
2022/06/29 06:18:07;;;;;;;13.60;12.30;;;;;;;23.13;72.73;98037.83;105396;1284;23344;-81
2022/06/29 06:20:35;;;;;;;12.60;11.50;;;;;;;23.13;72.70;98039.79;105411;1284;22565;-81
2022/06/29 06:23:03;;;;;;;14.90;13.60;;;;;;;23.16;72.82;98034.47;105374;1285;22574;-81
2022/06/29 06:25:31;;;;;;;15.30;13.90;;;;;;;23.22;72.61;98028.09;105375;1284;22566;-81
2022/06/29 06:28:00;;;;;;;14.50;13.00;;;;;;;23.22;72.43;98023.38;105380;1288;22569;-81
2022/06/29 06:30:28;;;;;;;12.90;11.70;;;;;;;23.22;72.52;98020.94;105455;1284;25232;-81
2022/06/29 06:32:56;;;;;;;15.80;13.20;;;;;;;23.23;72.52;98015.77;105425;1284;22721;-81
2022/06/29 06:35:24;;;;;;;12.80;11.70;;;;;;;23.17;72.47;98012.96;105395;1286;25428;-81
2022/06/29 06:37:52;;;;;;;16.80;13.30;;;;;;;23.14;72.73;98014.13;105437;1284;23954;-80
2022/06/29 06:43:07;;;;;;;13.00;11.80;;;;;;;23.24;72.71;98013.81;105168;1284;23366;-82
2022/06/29 06:45:34;;;;;;;17.10;13.40;;;;;;;23.33;72.62;98012.55;105378;1284;25664;-82
2022/06/29 06:48:02;;;;;;;16.20;14.50;;;;;;;23.33;72.07;98012.95;105334;1284;22558;-81
2022/06/29 06:50:30;;;;;;;14.80;13.50;;;;;;;23.28;72.24;98012.66;105370;1284;25352;-82
2022/06/29 06:52:58;;;;;;;14.00;12.60;;;;;;;23.26;72.23;98010.23;105365;1284;22578;-81
2022/06/29 06:55:26;;;;;;;15.60;13.50;;;;;;;23.16;72.20;98011.55;105327;1284;22571;-81
2022/06/29 06:57:54;;;;;;;16.00;14.40;;;;;;;23.12;72.35;98008.21;105280;1284;25365;-81
2022/06/29 07:00:22;;;;;;;15.00;13.50;;;;;;;23.18;72.54;98009.91;105378;1288;25727;-81
2022/06/29 07:02:50;;;;;;;13.60;12.10;;;;;;;23.20;72.37;98013.86;105367;1284;23344;-81
2022/06/29 07:05:19;;;;;;;16.10;12.90;;;;;;;23.24;72.28;98019.95;105298;1284;24376;-82
2022/06/29 07:07:47;;;;;;;15.00;13.00;;;;;;;23.25;72.31;98022.23;105416;1284;24434;-82
2022/06/29 07:10:15;;;;;;;12.40;11.20;;;;;;;23.23;72.47;98019.70;105416;1285;23731;-81
2022/06/29 07:12:43;;;;;;;12.00;10.80;;;;;;;23.34;72.71;98023.80;105425;1284;22568;-82
2022/06/29 07:15:11;;;;;;;15.00;13.60;;;;;;;23.54;72.37;98026.95;105330;1284;23075;-81
2022/06/29 07:17:39;;;;;;;15.30;13.70;;;;;;;23.57;71.92;98028.14;105437;1284;23643;-80
2022/06/29 07:20:09;;;;;;;14.10;12.30;;;;;;;23.55;71.82;98028.21;105620;1284;24102;-82
2022/06/29 07:22:37;;;;;;;14.40;12.90;;;;;;;23.46;71.99;98032.13;105546;1284;24428;-81
2022/06/29 07:25:05;;;;;;;16.90;13.40;;;;;;;23.44;71.93;98031.27;105499;1284;25369;-80
2022/06/29 07:27:33;;;;;;;13.70;12.30;;;;;;;23.42;72.06;98027.93;105523;1284;22603;-81
2022/06/29 07:30:01;;;;;;;13.20;12.00;;;;;;;23.52;72.35;98020.64;105447;1284;22636;-81
2022/06/29 07:32:30;;;;;;;11.20;10.20;;;;;;;23.71;71.91;98015.91;105466;1284;22579;-81
2022/06/29 07:34:58;;;;;;;15.60;12.30;;;;;;;23.85;71.75;98021.05;105535;1284;25403;-82
2022/06/29 07:37:28;;;;;;;13.60;12.40;;;;;;;24.02;71.73;98020.44;105590;1284;25555;-80
2022/06/29 07:39:56;;;;;;;10.20;9.30;;;;;;;24.06;71.31;98022.50;105558;1284;22608;-82
2022/06/29 07:42:40;;;;;;;;;;;;;;;24.14;71.58;98021.61;105520;1284;24379;-82
2022/06/29 07:45:08;;;;;;;15.00;11.60;;;;;;;24.28;71.40;98022.70;105610;1284;23202;-82
2022/06/29 07:47:36;;;;;;;12.30;10.90;;;;;;;24.49;71.08;98025.40;105423;1284;24427;-82
2022/06/29 07:50:04;;;;;;;12.40;11.20;;;;;;;24.63;70.46;98014.59;105397;1284;22563;-83
2022/06/29 07:52:33;;;;;;;12.20;11.00;;;;;;;24.86;70.29;98019.21;105509;1284;25253;-81
2022/06/29 07:55:01;;;;;;;12.40;11.20;;;;;;;25.10;70.29;98016.42;105453;1285;24275;-81
2022/06/29 07:57:29;;;;;;;11.80;10.30;;;;;;;25.29;69.14;98012.59;105578;1284;25481;-82
2022/06/29 07:59:57;;;;;;;10.90;9.90;;;;;;;25.38;69.14;98005.02;105552;1284;22661;-81
2022/06/29 08:02:25;;;;;;;12.00;10.20;;;;;;;25.53;68.23;98003.67;105570;1284;24220;-81
2022/06/29 08:04:53;;;;;;;11.10;9.80;;;;;;;25.62;67.94;98007.22;105628;1284;22585;-81
2022/06/29 08:07:31;;;;;;;11.60;8.90;;;;;;;25.73;68.11;98004.91;105648;1284;22704;-81
2022/06/29 08:10:01;;;;;;;9.30;8.40;;;;;;;25.88;66.67;97997.97;105636;1284;22562;-81
2022/06/29 08:12:29;;;;;;;9.40;8.30;;;;;;;26.01;66.59;97996.91;105583;1284;23752;-81
2022/06/29 08:14:57;;;;;;;11.40;8.70;;;;;;;26.25;66.60;97990.52;105487;1284;22551;-82
2022/06/29 08:17:25;;;;;;;10.50;7.80;;;;;;;26.50;65.81;97987.27;105477;1284;25425;-79
2022/06/29 08:20:03;;;;;;;9.40;7.90;;;;;;;26.56;64.66;97985.03;105573;1284;25339;-82
2022/06/29 08:22:32;;;;;;;8.90;7.30;;;;;;;26.61;64.58;97979.95;105579;1284;22569;-81
2022/06/29 08:25:00;;;;;;;10.70;8.50;;;;;;;26.66;63.75;97982.76;105561;1284;24246;-82
2022/06/29 08:27:30;;;;;;;9.20;7.30;;;;;;;26.65;64.28;97978.42;105672;1284;22742;-82
2022/06/29 08:30:14;;;;;;;9.10;7.90;;;;;;;26.74;63.55;97979.39;105479;1284;22584;-82
2022/06/29 08:32:44;;;;;;;11.00;7.80;;;;;;;26.80;63.72;97974.94;105656;1284;22701;-81
2022/06/29 08:35:14;;;;;;;8.70;7.10;;;;;;;26.92;63.93;97968.14;105616;1284;23820;-81
2022/06/29 08:37:43;;;;;;;14.40;8.70;;;;;;;27.01;63.28;97966.34;105645;1284;22754;-81
2022/06/29 08:40:14;;;;;;;11.90;7.60;;;;;;;27.04;62.52;97959.60;105620;1284;22910;-82
2022/06/29 08:42:44;;;;;;;8.80;7.90;;;;;;;27.06;62.49;97955.31;105591;1284;24730;-83
2022/06/29 08:45:14;;;;;;;10.70;6.90;;;;;;;27.04;62.69;97956.45;105535;1284;22561;-82
2022/06/29 08:47:42;;;;;;;8.70;7.60;;;;;;;27.05;61.58;97956.27;105519;1284;24093;-82
2022/06/29 08:50:12;;;;;;;14.10;7.30;;;;;;;27.15;61.64;97955.58;105574;1284;22581;-82
2022/06/29 08:52:41;;;;;;;8.40;7.30;;;;;;;27.24;60.95;97946.41;105646;1284;22700;-82
2022/06/29 08:55:09;;;;;;;11.30;7.60;;;;;;;27.28;60.93;97951.06;105673;1284;22566;-81
2022/06/29 08:57:40;;;;;;;9.30;7.50;;;;;;;27.35;61.22;97948.46;105658;1284;25503;-82
2022/06/29 09:00:10;;;;;;;9.30;7.30;;;;;;;27.48;60.14;97943.27;105718;1284;22620;-82
2022/06/29 09:02:38;;;;;;;13.60;8.30;;;;;;;27.54;60.59;97939.42;105732;1284;22553;-82
2022/06/29 09:05:07;;;;;;;7.90;7.10;;;;;;;27.61;59.72;97939.73;105618;1284;22555;-82
2022/06/29 09:07:35;;;;;;;9.60;7.40;;;;;;;27.71;60.10;97944.31;105455;1284;25244;-81
2022/06/29 09:10:06;;;;;;;9.10;8.20;;;;;;;27.83;59.08;97945.86;105525;1284;24441;-82
2022/06/29 09:12:34;;;;;;;9.10;7.90;;;;;;;27.86;59.24;97945.60;105879;1284;22636;-82
2022/06/29 09:15:07;;;;;;;10.30;7.40;;;;;;;27.88;58.60;97943.27;105451;1284;24349;-81
2022/06/29 09:17:37;;;;;;;10.20;7.20;;;;;;;27.98;59.19;97945.94;105421;1284;22647;-81
2022/06/29 09:20:06;;;;;;;8.70;7.00;;;;;;;28.12;58.91;97945.05;105574;1284;24421;-81
2022/06/29 09:22:57;;;;;;;7.50;6.70;;;;;;;28.24;58.79;97941.65;105602;1284;22544;-81
2022/06/29 09:25:28;;;;;;;9.50;6.20;;;;;;;28.33;57.82;97941.06;105687;1284;22704;-81
2022/06/29 09:27:56;;;;;;;9.20;5.90;;;;;;;28.38;57.99;97933.72;105582;1284;22677;-81
2022/06/29 09:30:30;;;;;;;7.30;6.20;;;;;;;28.46;57.10;97936.48;105396;1284;22579;-80
2022/06/29 09:33:00;;;;;;;11.10;7.10;;;;;;;28.48;56.87;97933.60;105538;1284;25403;-82
2022/06/29 09:35:29;;;;;;;11.70;6.50;;;;;;;28.55;56.66;97929.38;105587;1284;23997;-81
2022/06/29 09:38:19;;;;;;;10.50;6.50;;;;;;;28.61;56.27;97928.34;105512;1284;25351;-81
2022/06/29 09:41:05;;;;;;;7.50;6.40;;;;;;;28.70;55.23;97927.10;105402;1284;22575;-81
2022/06/29 09:43:40;;;;;;;7.90;6.40;;;;;;;28.74;55.56;97922.38;105382;1285;23416;-80
2022/06/29 09:46:12;;;;;;;8.30;6.50;;;;;;;28.83;55.26;97924.77;105512;1284;22686;-82
2022/06/29 09:48:41;;;;;;;11.10;7.00;;;;;;;28.85;54.84;97922.04;105585;1284;24218;-82
2022/06/29 09:54:03;;;;;;;11.40;6.50;;;;;;;28.97;54.26;97931.11;105643;1284;25335;-81
2022/06/29 09:56:33;;;;;;;7.80;5.90;;;;;;;29.10;54.27;97927.45;105741;1284;22571;-82
2022/06/29 09:59:05;;;;;;;7.50;6.20;;;;;;;29.16;52.82;97921.79;105512;1284;23949;-82
2022/06/29 10:04:20;;;;;;;8.50;6.80;;;;;;;29.36;53.57;97922.72;105750;1284;23146;-81
2022/06/29 10:06:49;;;;;;;9.80;6.70;;;;;;;29.47;52.34;97922.14;105609;1284;24873;-81
2022/06/29 10:09:17;;;;;;;9.20;6.40;;;;;;;29.54;52.83;97920.10;105596;1284;22592;-81
2022/06/29 10:15:41;;;;;;;9.20;6.40;;;;;;;29.91;52.81;97917.90;105091;1288;22585;-81
2022/06/29 10:18:22;;;;;;;8.10;6.40;;;;;;;30.07;52.55;97919.08;105116;1288;25416;-81
2022/06/29 10:20:52;;;;;;;8.10;6.20;;;;;;;30.22;52.21;97918.48;105053;1288;22575;-81
2022/06/29 10:23:45;;;;;;;7.70;6.10;;;;;;;30.32;52.20;97915.16;105117;1288;22587;-81
2022/06/29 10:26:28;;;;;;;10.60;6.30;;;;;;;30.46;51.55;97912.96;105095;1288;24392;-80
2022/06/29 10:28:56;;;;;;;9.40;6.50;;;;;;;30.42;49.85;97910.10;105035;1288;22620;-82
2022/06/29 10:31:49;;;;;;;9.20;6.30;;;;;;;30.34;50.54;97905.04;105123;1288;22576;-80
2022/06/29 10:34:30;;;;;;;;;;;;;;;30.40;50.63;97904.89;104945;1290;22602;-80
2022/06/29 10:37:09;;;;;;;9.30;6.20;;;;;;;30.54;50.77;97903.15;104928;1290;22613;-81
2022/06/29 10:39:43;;;;;;;7.60;5.60;;;;;;;30.69;50.58;97904.23;104921;1290;24439;-81
2022/06/29 10:45:24;;;;;;;9.50;6.20;;;;;;;31.10;49.89;97899.45;104884;1290;24220;-81
2022/06/29 10:47:52;;;;;;;8.50;6.60;;;;;;;31.27;48.45;97898.16;105471;1285;24734;-80
2022/06/29 10:50:24;;;;;;;13.20;6.70;;;;;;;31.22;47.59;97899.15;105483;1285;24303;-82
2022/06/29 10:52:58;;;;;;;7.70;6.10;;;;;;;31.15;47.43;97902.98;105488;1285;22874;-82
2022/06/29 10:55:28;;;;;;;10.20;6.40;;;;;;;31.26;47.48;97903.80;105431;1285;22584;-81
2022/06/29 10:57:57;;;;;;;11.90;6.80;;;;;;;31.27;46.97;97895.58;105561;1285;25360;-80
2022/06/29 11:00:28;;;;;;;8.90;6.40;;;;;;;31.38;46.26;97896.45;105549;1285;22629;-81
2022/06/29 11:02:57;;;;;;;9.50;6.40;;;;;;;31.33;46.72;97899.11;105392;1285;22713;-81
2022/06/29 11:05:25;;;;;;;9.20;6.20;;;;;;;31.50;47.17;97896.77;105403;1285;22589;-81
2022/06/29 11:13:30;;;;;;;9.70;6.20;;;;;;;31.99;46.84;97889.62;105641;1285;22627;-80
2022/06/29 11:16:00;;;;;;;9.10;6.10;;;;;;;32.18;46.49;97890.07;105574;1285;22568;-80
2022/06/29 11:18:32;;;;;;;9.30;6.80;;;;;;;32.28;46.34;97886.13;105473;1285;22594;-80
2022/06/29 11:21:03;;;;;;;9.60;6.40;;;;;;;32.31;44.18;97885.56;105438;1285;25300;-79
2022/06/29 11:23:34;;;;;;;14.20;6.80;;;;;;;32.12;44.42;97880.23;105383;1285;22832;-80
2022/06/29 11:26:04;;;;;;;11.80;6.30;;;;;;;31.95;42.98;97875.88;105322;1285;25314;-79
2022/06/29 11:28:36;;;;;;;9.00;6.30;;;;;;;31.67;43.12;97876.59;105475;1285;25459;-79
2022/06/29 11:31:12;;;;;;;12.00;6.30;;;;;;;31.59;44.09;97874.17;105360;1285;26681;-78
2022/06/29 11:33:47;;;;;;;9.50;5.90;;;;;;;31.66;44.04;97869.90;105530;1285;24106;-78
2022/06/29 11:36:18;;;;;;;8.20;6.30;;;;;;;31.85;44.52;97864.30;105509;1285;22610;-78
2022/06/29 11:38:49;;;;;;;7.40;6.30;;;;;;;32.12;44.51;97862.40;105558;1285;23420;-79
2022/06/29 11:41:25;;;;;;;9.50;6.70;;;;;;;32.46;44.31;97862.23;105576;1285;24439;-79
2022/06/29 11:44:00;;;;;;;9.10;6.50;;;;;;;32.77;44.63;97862.13;105238;1285;22689;-79
2022/06/29 11:46:30;;;;;;;;;;;;;;;33.03;43.33;97863.11;105384;1286;23521;-79
2022/06/29 11:51:53;;;;;;;10.00;6.10;;;;;;;32.87;42.80;97866.74;105438;1285;25431;-80
2022/06/29 11:54:47;;;;;;;9.50;6.20;;;;;;;33.03;42.88;97864.96;105500;1285;22664;-78
2022/06/29 11:57:18;;;;;;;12.20;6.40;;;;;;;33.20;42.45;97862.86;105418;1285;23464;-79
2022/06/29 11:59:47;;;;;;;11.10;6.00;;;;;;;33.31;42.26;97859.21;105414;1286;25334;-79